sensor_id;sensor_type;location;lat;lon;timestamp;temperature;humidity
20714;DHT22;10518;50.742;4.226;2023-03-30T00:00:18;15.90;99.90
20714;DHT22;10518;50.742;4.226;2023-03-30T00:02:46;15.80;99.90
20714;DHT22;10518;50.742;4.226;2023-03-30T00:05:13;15.50;99.90
20714;DHT22;10518;50.742;4.226;2023-03-30T00:07:40;15.30;99.90
20714;DHT22;10518;50.742;4.226;2023-03-30T00:10:14;15.50;99.90
20714;DHT22;10518;50.742;4.226;2023-03-30T00:12:43;15.50;99.90
20714;DHT22;10518;50.742;4.226;2023-03-30T00:15:10;15.50;99.90
20714;DHT22;10518;50.742;4.226;2023-03-30T00:17:37;15.40;99.90
20714;DHT22;10518;50.742;4.226;2023-03-30T00:20:03;15.30;99.90
20714;DHT22;10518;50.742;4.226;2023-03-30T00:22:40;15.40;99.90
20714;DHT22;10518;50.742;4.226;2023-03-30T00:25:08;15.30;99.90
20714;DHT22;10518;50.742;4.226;2023-03-30T00:27:35;15.30;99.90
20714;DHT22;10518;50.742;4.226;2023-03-30T00:30:02;15.20;99.90
20714;DHT22;10518;50.742;4.226;2023-03-30T00:32:27;15.30;99.90
20714;DHT22;10518;50.742;4.226;2023-03-30T00:34:53;15.50;99.90
20714;DHT22;10518;50.742;4.226;2023-03-30T00:37:18;15.50;99.90
20714;DHT22;10518;50.742;4.226;2023-03-30T00:39:44;15.40;99.90
20714;DHT22;10518;50.742;4.226;2023-03-30T00:42:16;15.40;99.90
20714;DHT22;10518;50.742;4.226;2023-03-30T00:45:18;15.30;99.90
20714;DHT22;10518;50.742;4.226;2023-03-30T00:47:59;15.20;99.90
20714;DHT22;10518;50.742;4.226;2023-03-30T00:50:34;15.10;99.90
20714;DHT22;10518;50.742;4.226;2023-03-30T00:53:07;15.00;99.90
20714;DHT22;10518;50.742;4.226;2023-03-30T00:55:36;15.10;99.90
20714;DHT22;10518;50.742;4.226;2023-03-30T00:58:03;15.00;99.90
20714;DHT22;10518;50.742;4.226;2023-03-30T01:00:29;14.90;99.90
20714;DHT22;10518;50.742;4.226;2023-03-30T01:03:01;14.80;99.90
20714;DHT22;10518;50.742;4.226;2023-03-30T01:05:28;14.70;99.90
20714;DHT22;10518;50.742;4.226;2023-03-30T01:07:55;14.60;99.90
20714;DHT22;10518;50.742;4.226;2023-03-30T01:10:22;14.70;99.90
20714;DHT22;10518;50.742;4.226;2023-03-30T01:12:48;14.70;99.90
20714;DHT22;10518;50.742;4.226;2023-03-30T01:15:14;14.90;99.90
20714;DHT22;10518;50.742;4.226;2023-03-30T01:17:55;14.80;99.90
20714;DHT22;10518;50.742;4.226;2023-03-30T01:41:58;14.60;99.90
20714;DHT22;10518;50.742;4.226;2023-03-30T01:44:33;14.50;99.90
20714;DHT22;10518;50.742;4.226;2023-03-30T01:47:32;14.60;99.90
20714;DHT22;10518;50.742;4.226;2023-03-30T01:50:07;14.50;99.90
20714;DHT22;10518;50.742;4.226;2023-03-30T01:52:42;14.40;99.90
20714;DHT22;10518;50.742;4.226;2023-03-30T01:55:17;14.30;99.90
20714;DHT22;10518;50.742;4.226;2023-03-30T01:57:52;14.20;99.90
20714;DHT22;10518;50.742;4.226;2023-03-30T02:00:22;14.10;99.90
20714;DHT22;10518;50.742;4.226;2023-03-30T02:03:13;14.10;99.90
20714;DHT22;10518;50.742;4.226;2023-03-30T02:05:42;14.20;99.90
20714;DHT22;10518;50.742;4.226;2023-03-30T02:08:17;14.10;99.90
20714;DHT22;10518;50.742;4.226;2023-03-30T02:10:45;14.10;99.90
20714;DHT22;10518;50.742;4.226;2023-03-30T02:13:12;14.00;99.90
20714;DHT22;10518;50.742;4.226;2023-03-30T02:15:41;14.20;99.90
20714;DHT22;10518;50.742;4.226;2023-03-30T02:18:09;14.30;99.90
20714;DHT22;10518;50.742;4.226;2023-03-30T02:20:35;14.40;99.90
20714;DHT22;10518;50.742;4.226;2023-03-30T02:23:02;14.30;99.90
20714;DHT22;10518;50.742;4.226;2023-03-30T02:25:30;14.20;99.90
20714;DHT22;10518;50.742;4.226;2023-03-30T02:27:56;14.20;99.90
20714;DHT22;10518;50.742;4.226;2023-03-30T02:30:22;14.10;99.90
20714;DHT22;10518;50.742;4.226;2023-03-30T02:32:52;14.30;99.90
20714;DHT22;10518;50.742;4.226;2023-03-30T02:42:21;14.50;99.90
20714;DHT22;10518;50.742;4.226;2023-03-30T02:47:06;14.60;99.90
20714;DHT22;10518;50.742;4.226;2023-03-30T02:49:49;14.60;99.90
20714;DHT22;10518;50.742;4.226;2023-03-30T03:00:40;14.70;99.90
20714;DHT22;10518;50.742;4.226;2023-03-30T03:03:25;14.80;99.90
20714;DHT22;10518;50.742;4.226;2023-03-30T03:05:52;14.50;99.90
20714;DHT22;10518;50.742;4.226;2023-03-30T03:08:21;14.40;99.90
20714;DHT22;10518;50.742;4.226;2023-03-30T03:10:48;14.40;99.90
20714;DHT22;10518;50.742;4.226;2023-03-30T03:13:14;14.70;99.90
20714;DHT22;10518;50.742;4.226;2023-03-30T03:15:40;14.80;99.90
20714;DHT22;10518;50.742;4.226;2023-03-30T03:18:10;14.80;99.90
20714;DHT22;10518;50.742;4.226;2023-03-30T03:20:35;14.80;99.90
20714;DHT22;10518;50.742;4.226;2023-03-30T03:23:01;14.80;99.90
20714;DHT22;10518;50.742;4.226;2023-03-30T03:25:27;14.80;99.90
20714;DHT22;10518;50.742;4.226;2023-03-30T03:27:52;14.80;99.90
20714;DHT22;10518;50.742;4.226;2023-03-30T03:30:18;15.00;99.90
20714;DHT22;10518;50.742;4.226;2023-03-30T03:32:44;14.80;99.90
20714;DHT22;10518;50.742;4.226;2023-03-30T03:35:09;14.60;99.90
20714;DHT22;10518;50.742;4.226;2023-03-30T03:37:35;14.40;99.90
20714;DHT22;10518;50.742;4.226;2023-03-30T03:40:00;14.30;99.90
20714;DHT22;10518;50.742;4.226;2023-03-30T03:42:26;14.40;99.90
20714;DHT22;10518;50.742;4.226;2023-03-30T03:44:51;14.30;99.90
20714;DHT22;10518;50.742;4.226;2023-03-30T03:47:17;14.20;99.90
20714;DHT22;10518;50.742;4.226;2023-03-30T03:49:43;14.40;99.90
20714;DHT22;10518;50.742;4.226;2023-03-30T03:52:08;14.40;99.90
20714;DHT22;10518;50.742;4.226;2023-03-30T03:54:35;14.40;99.90
20714;DHT22;10518;50.742;4.226;2023-03-30T03:57:00;14.40;99.90
20714;DHT22;10518;50.742;4.226;2023-03-30T03:59:26;14.50;99.90
20714;DHT22;10518;50.742;4.226;2023-03-30T04:01:52;14.60;99.90
20714;DHT22;10518;50.742;4.226;2023-03-30T04:04:17;14.60;99.90
20714;DHT22;10518;50.742;4.226;2023-03-30T04:06:43;14.70;99.90
20714;DHT22;10518;50.742;4.226;2023-03-30T04:09:09;14.70;99.90
20714;DHT22;10518;50.742;4.226;2023-03-30T04:11:34;15.00;99.90
20714;DHT22;10518;50.742;4.226;2023-03-30T04:14:00;15.00;99.90
20714;DHT22;10518;50.742;4.226;2023-03-30T04:16:26;14.80;99.90
20714;DHT22;10518;50.742;4.226;2023-03-30T04:18:52;14.70;99.90
20714;DHT22;10518;50.742;4.226;2023-03-30T04:21:18;14.70;99.90
20714;DHT22;10518;50.742;4.226;2023-03-30T04:23:44;14.90;99.90
20714;DHT22;10518;50.742;4.226;2023-03-30T04:26:13;14.70;99.90
20714;DHT22;10518;50.742;4.226;2023-03-30T04:28:39;14.60;99.90
20714;DHT22;10518;50.742;4.226;2023-03-30T04:31:07;14.60;99.90
20714;DHT22;10518;50.742;4.226;2023-03-30T04:33:38;14.50;99.90
20714;DHT22;10518;50.742;4.226;2023-03-30T04:36:10;14.50;99.90
20714;DHT22;10518;50.742;4.226;2023-03-30T04:38:37;14.60;99.90
20714;DHT22;10518;50.742;4.226;2023-03-30T04:41:03;14.80;99.90
20714;DHT22;10518;50.742;4.226;2023-03-30T04:43:29;14.60;99.90
20714;DHT22;10518;50.742;4.226;2023-03-30T04:45:56;14.50;99.90
20714;DHT22;10518;50.742;4.226;2023-03-30T04:48:23;14.50;99.90
20714;DHT22;10518;50.742;4.226;2023-03-30T04:50:49;14.40;99.90
20714;DHT22;10518;50.742;4.226;2023-03-30T04:53:16;14.40;99.90
20714;DHT22;10518;50.742;4.226;2023-03-30T04:55:46;14.70;99.90
20714;DHT22;10518;50.742;4.226;2023-03-30T04:58:12;14.50;99.90
20714;DHT22;10518;50.742;4.226;2023-03-30T05:00:38;14.60;99.90
20714;DHT22;10518;50.742;4.226;2023-03-30T05:03:04;14.30;99.90
20714;DHT22;10518;50.742;4.226;2023-03-30T05:05:29;14.20;99.90
20714;DHT22;10518;50.742;4.226;2023-03-30T05:07:55;14.40;99.90
20714;DHT22;10518;50.742;4.226;2023-03-30T05:10:21;14.50;99.90
20714;DHT22;10518;50.742;4.226;2023-03-30T05:12:47;14.30;99.90
20714;DHT22;10518;50.742;4.226;2023-03-30T05:15:13;14.20;99.90
20714;DHT22;10518;50.742;4.226;2023-03-30T05:17:39;14.10;99.90
20714;DHT22;10518;50.742;4.226;2023-03-30T05:20:05;14.00;99.90
20714;DHT22;10518;50.742;4.226;2023-03-30T05:22:34;14.10;99.90
20714;DHT22;10518;50.742;4.226;2023-03-30T05:25:01;14.20;99.90
20714;DHT22;10518;50.742;4.226;2023-03-30T05:27:27;14.10;99.90
20714;DHT22;10518;50.742;4.226;2023-03-30T05:29:52;14.00;99.90
20714;DHT22;10518;50.742;4.226;2023-03-30T05:32:18;13.70;99.90
20714;DHT22;10518;50.742;4.226;2023-03-30T05:34:43;13.50;99.90
20714;DHT22;10518;50.742;4.226;2023-03-30T05:37:09;13.40;99.90
20714;DHT22;10518;50.742;4.226;2023-03-30T05:39:35;13.40;99.90
20714;DHT22;10518;50.742;4.226;2023-03-30T05:42:01;13.60;99.90
20714;DHT22;10518;50.742;4.226;2023-03-30T05:44:26;13.40;99.90
20714;DHT22;10518;50.742;4.226;2023-03-30T05:46:52;13.30;99.90
20714;DHT22;10518;50.742;4.226;2023-03-30T05:49:18;13.30;99.90
20714;DHT22;10518;50.742;4.226;2023-03-30T05:51:43;13.10;99.90
20714;DHT22;10518;50.742;4.226;2023-03-30T05:54:12;13.20;99.90
20714;DHT22;10518;50.742;4.226;2023-03-30T05:56:38;13.60;99.90
20714;DHT22;10518;50.742;4.226;2023-03-30T05:59:07;13.40;99.90
20714;DHT22;10518;50.742;4.226;2023-03-30T06:01:32;13.70;99.90
20714;DHT22;10518;50.742;4.226;2023-03-30T06:03:58;13.80;99.90
20714;DHT22;10518;50.742;4.226;2023-03-30T06:06:24;13.70;99.90
20714;DHT22;10518;50.742;4.226;2023-03-30T06:08:50;13.60;99.90
20714;DHT22;10518;50.742;4.226;2023-03-30T06:11:15;13.70;99.90
20714;DHT22;10518;50.742;4.226;2023-03-30T06:13:41;13.60;99.90
20714;DHT22;10518;50.742;4.226;2023-03-30T06:16:07;13.50;99.90
20714;DHT22;10518;50.742;4.226;2023-03-30T06:18:32;13.60;99.90
20714;DHT22;10518;50.742;4.226;2023-03-30T06:20:58;13.80;99.90
20714;DHT22;10518;50.742;4.226;2023-03-30T06:23:27;13.70;99.90
20714;DHT22;10518;50.742;4.226;2023-03-30T06:25:53;13.60;99.90
20714;DHT22;10518;50.742;4.226;2023-03-30T06:28:20;13.40;99.90
20714;DHT22;10518;50.742;4.226;2023-03-30T06:30:47;13.40;99.90
20714;DHT22;10518;50.742;4.226;2023-03-30T06:33:14;13.20;99.90
20714;DHT22;10518;50.742;4.226;2023-03-30T06:35:47;13.20;99.90
20714;DHT22;10518;50.742;4.226;2023-03-30T06:38:14;13.10;99.90
20714;DHT22;10518;50.742;4.226;2023-03-30T06:40:39;13.50;99.90
20714;DHT22;10518;50.742;4.226;2023-03-30T06:43:06;13.20;99.90
20714;DHT22;10518;50.742;4.226;2023-03-30T06:45:32;13.20;99.90
20714;DHT22;10518;50.742;4.226;2023-03-30T06:47:57;13.30;99.90
20714;DHT22;10518;50.742;4.226;2023-03-30T06:50:23;13.40;99.90
20714;DHT22;10518;50.742;4.226;2023-03-30T06:52:48;13.30;99.90
20714;DHT22;10518;50.742;4.226;2023-03-30T06:55:14;13.40;99.90
20714;DHT22;10518;50.742;4.226;2023-03-30T06:57:40;13.30;99.90
20714;DHT22;10518;50.742;4.226;2023-03-30T07:00:06;13.20;99.90
20714;DHT22;10518;50.742;4.226;2023-03-30T07:02:40;13.50;99.90
20714;DHT22;10518;50.742;4.226;2023-03-30T07:05:06;13.80;99.90
20714;DHT22;10518;50.742;4.226;2023-03-30T07:07:32;14.40;99.90
20714;DHT22;10518;50.742;4.226;2023-03-30T07:09:58;14.70;99.90
20714;DHT22;10518;50.742;4.226;2023-03-30T07:12:24;14.50;99.90
20714;DHT22;10518;50.742;4.226;2023-03-30T07:14:49;14.40;99.90
20714;DHT22;10518;50.742;4.226;2023-03-30T07:17:15;14.60;99.90
20714;DHT22;10518;50.742;4.226;2023-03-30T07:19:40;14.70;99.90
20714;DHT22;10518;50.742;4.226;2023-03-30T07:22:06;14.50;99.90
20714;DHT22;10518;50.742;4.226;2023-03-30T07:24:32;14.40;99.90
20714;DHT22;10518;50.742;4.226;2023-03-30T07:26:58;14.60;99.90
20714;DHT22;10518;50.742;4.226;2023-03-30T07:29:24;14.60;99.90
20714;DHT22;10518;50.742;4.226;2023-03-30T07:31:51;14.60;99.90
20714;DHT22;10518;50.742;4.226;2023-03-30T07:34:17;14.60;99.90
20714;DHT22;10518;50.742;4.226;2023-03-30T07:36:42;14.60;99.90
20714;DHT22;10518;50.742;4.226;2023-03-30T07:39:08;14.50;99.90
20714;DHT22;10518;50.742;4.226;2023-03-30T07:41:33;14.30;99.90
20714;DHT22;10518;50.742;4.226;2023-03-30T07:43:59;14.40;99.90
20714;DHT22;10518;50.742;4.226;2023-03-30T07:46:25;14.10;99.90
20714;DHT22;10518;50.742;4.226;2023-03-30T07:48:50;14.20;99.90
20714;DHT22;10518;50.742;4.226;2023-03-30T07:51:17;14.20;99.90
20714;DHT22;10518;50.742;4.226;2023-03-30T07:53:43;14.20;99.90
20714;DHT22;10518;50.742;4.226;2023-03-30T07:56:09;14.00;99.90
20714;DHT22;10518;50.742;4.226;2023-03-30T07:58:34;13.90;99.90
20714;DHT22;10518;50.742;4.226;2023-03-30T08:01:01;13.80;99.90
20714;DHT22;10518;50.742;4.226;2023-03-30T08:03:27;13.80;99.90
20714;DHT22;10518;50.742;4.226;2023-03-30T08:05:54;13.90;99.90
20714;DHT22;10518;50.742;4.226;2023-03-30T08:08:20;13.80;99.90
20714;DHT22;10518;50.742;4.226;2023-03-30T08:10:46;13.90;99.90
20714;DHT22;10518;50.742;4.226;2023-03-30T08:13:11;13.80;99.90
20714;DHT22;10518;50.742;4.226;2023-03-30T08:15:38;13.80;99.90
20714;DHT22;10518;50.742;4.226;2023-03-30T08:18:03;14.00;99.90
20714;DHT22;10518;50.742;4.226;2023-03-30T08:20:36;13.90;99.90
20714;DHT22;10518;50.742;4.226;2023-03-30T08:23:06;14.00;99.90
20714;DHT22;10518;50.742;4.226;2023-03-30T08:25:32;14.10;99.90
20714;DHT22;10518;50.742;4.226;2023-03-30T08:27:58;13.90;99.90
20714;DHT22;10518;50.742;4.226;2023-03-30T08:30:24;13.90;99.90
20714;DHT22;10518;50.742;4.226;2023-03-30T08:32:50;14.10;99.90
20714;DHT22;10518;50.742;4.226;2023-03-30T08:35:16;14.10;99.90
20714;DHT22;10518;50.742;4.226;2023-03-30T08:37:42;14.20;99.90
20714;DHT22;10518;50.742;4.226;2023-03-30T08:40:10;14.30;99.90
20714;DHT22;10518;50.742;4.226;2023-03-30T08:45:11;14.40;99.90
20714;DHT22;10518;50.742;4.226;2023-03-30T08:47:39;14.60;99.90
20714;DHT22;10518;50.742;4.226;2023-03-30T08:52:52;15.40;99.90
20714;DHT22;10518;50.742;4.226;2023-03-30T08:55:23;15.50;99.90
20714;DHT22;10518;50.742;4.226;2023-03-30T09:00:43;15.70;99.90
20714;DHT22;10518;50.742;4.226;2023-03-30T09:03:17;15.70;99.90
20714;DHT22;10518;50.742;4.226;2023-03-30T09:05:50;15.80;99.90
20714;DHT22;10518;50.742;4.226;2023-03-30T09:08:20;16.20;99.90
20714;DHT22;10518;50.742;4.226;2023-03-30T09:10:57;16.30;99.90
20714;DHT22;10518;50.742;4.226;2023-03-30T09:13:34;16.40;99.90
20714;DHT22;10518;50.742;4.226;2023-03-30T09:16:18;16.30;99.90
20714;DHT22;10518;50.742;4.226;2023-03-30T09:18:50;16.50;99.90
20714;DHT22;10518;50.742;4.226;2023-03-30T09:21:27;16.50;99.90
20714;DHT22;10518;50.742;4.226;2023-03-30T09:23:56;17.00;99.90
20714;DHT22;10518;50.742;4.226;2023-03-30T09:29:09;16.90;99.90
20714;DHT22;10518;50.742;4.226;2023-03-30T09:34:26;16.80;99.90
20714;DHT22;10518;50.742;4.226;2023-03-30T09:37:14;17.00;99.90
20714;DHT22;10518;50.742;4.226;2023-03-30T09:39:44;16.90;99.90
20714;DHT22;10518;50.742;4.226;2023-03-30T09:44:47;16.50;99.90
20714;DHT22;10518;50.742;4.226;2023-03-30T09:47:33;16.30;99.90
20714;DHT22;10518;50.742;4.226;2023-03-30T09:50:15;16.10;99.90
20714;DHT22;10518;50.742;4.226;2023-03-30T09:52:58;15.80;99.90
20714;DHT22;10518;50.742;4.226;2023-03-30T09:55:27;15.40;99.90
20714;DHT22;10518;50.742;4.226;2023-03-30T09:58:10;15.40;99.90
20714;DHT22;10518;50.742;4.226;2023-03-30T10:00:36;15.30;99.90
20714;DHT22;10518;50.742;4.226;2023-03-30T10:03:04;15.30;99.90
20714;DHT22;10518;50.742;4.226;2023-03-30T10:05:32;15.20;99.90
20714;DHT22;10518;50.742;4.226;2023-03-30T10:08:03;15.10;99.90
20714;DHT22;10518;50.742;4.226;2023-03-30T10:10:37;15.00;99.90
20714;DHT22;10518;50.742;4.226;2023-03-30T10:13:12;15.10;99.90
20714;DHT22;10518;50.742;4.226;2023-03-30T10:15:40;14.90;99.90
20714;DHT22;10518;50.742;4.226;2023-03-30T10:20:49;15.10;99.90
20714;DHT22;10518;50.742;4.226;2023-03-30T10:23:17;15.40;99.90
20714;DHT22;10518;50.742;4.226;2023-03-30T10:25:45;15.80;99.90
20714;DHT22;10518;50.742;4.226;2023-03-30T10:28:24;16.20;99.90
20714;DHT22;10518;50.742;4.226;2023-03-30T10:30:54;16.30;99.90
20714;DHT22;10518;50.742;4.226;2023-03-30T10:33:20;16.40;99.90
20714;DHT22;10518;50.742;4.226;2023-03-30T10:35:47;16.30;99.90
20714;DHT22;10518;50.742;4.226;2023-03-30T10:38:14;16.30;99.90
20714;DHT22;10518;50.742;4.226;2023-03-30T10:40:42;16.50;99.90
20714;DHT22;10518;50.742;4.226;2023-03-30T10:43:19;16.50;99.90
20714;DHT22;10518;50.742;4.226;2023-03-30T10:45:49;16.10;99.90
20714;DHT22;10518;50.742;4.226;2023-03-30T10:59:04;15.10;99.90
20714;DHT22;10518;50.742;4.226;2023-03-30T11:04:15;15.40;99.90
20714;DHT22;10518;50.742;4.226;2023-03-30T11:06:44;15.30;99.90
20714;DHT22;10518;50.742;4.226;2023-03-30T11:09:15;15.20;99.90
20714;DHT22;10518;50.742;4.226;2023-03-30T11:11:50;15.30;99.90
20714;DHT22;10518;50.742;4.226;2023-03-30T11:14:40;15.20;99.90
20714;DHT22;10518;50.742;4.226;2023-03-30T11:17:27;15.20;99.90
20714;DHT22;10518;50.742;4.226;2023-03-30T11:19:57;15.40;99.90
20714;DHT22;10518;50.742;4.226;2023-03-30T11:22:40;15.40;99.90
20714;DHT22;10518;50.742;4.226;2023-03-30T11:25:20;15.30;99.90
20714;DHT22;10518;50.742;4.226;2023-03-30T11:27:54;15.40;99.90
20714;DHT22;10518;50.742;4.226;2023-03-30T11:30:27;15.60;99.90
20714;DHT22;10518;50.742;4.226;2023-03-30T11:32:58;15.40;99.90
20714;DHT22;10518;50.742;4.226;2023-03-30T11:35:32;15.40;99.90
20714;DHT22;10518;50.742;4.226;2023-03-30T11:40:41;15.60;99.90
20714;DHT22;10518;50.742;4.226;2023-03-30T11:43:10;16.00;99.90
20714;DHT22;10518;50.742;4.226;2023-03-30T11:56:56;17.30;99.90
20714;DHT22;10518;50.742;4.226;2023-03-30T11:59:53;17.20;99.90
20714;DHT22;10518;50.742;4.226;2023-03-30T12:02:57;17.30;99.90
20714;DHT22;10518;50.742;4.226;2023-03-30T12:05:35;17.30;99.90
20714;DHT22;10518;50.742;4.226;2023-03-30T12:10:47;17.50;99.90
20714;DHT22;10518;50.742;4.226;2023-03-30T12:13:17;17.70;99.90
20714;DHT22;10518;50.742;4.226;2023-03-30T12:15:54;18.00;99.90
20714;DHT22;10518;50.742;4.226;2023-03-30T12:21:35;18.40;99.90
20714;DHT22;10518;50.742;4.226;2023-03-30T12:26:40;18.10;99.90
20714;DHT22;10518;50.742;4.226;2023-03-30T12:29:08;18.30;99.90
20714;DHT22;10518;50.742;4.226;2023-03-30T12:32:04;18.20;99.90
20714;DHT22;10518;50.742;4.226;2023-03-30T12:34:35;18.20;99.90
20714;DHT22;10518;50.742;4.226;2023-03-30T12:39:47;18.60;99.90
20714;DHT22;10518;50.742;4.226;2023-03-30T12:42:27;18.80;99.90
20714;DHT22;10518;50.742;4.226;2023-03-30T12:45:17;19.10;99.90
20714;DHT22;10518;50.742;4.226;2023-03-30T12:48:06;19.20;99.90
20714;DHT22;10518;50.742;4.226;2023-03-30T12:50:54;19.20;99.90
20714;DHT22;10518;50.742;4.226;2023-03-30T13:04:35;19.00;99.90
20714;DHT22;10518;50.742;4.226;2023-03-30T13:07:05;19.30;99.90
20714;DHT22;10518;50.742;4.226;2023-03-30T13:09:57;19.40;99.90
20714;DHT22;10518;50.742;4.226;2023-03-30T13:12:26;19.40;99.90
20714;DHT22;10518;50.742;4.226;2023-03-30T13:15:29;19.60;99.90
20714;DHT22;10518;50.742;4.226;2023-03-30T13:20:27;19.50;99.90
20714;DHT22;10518;50.742;4.226;2023-03-30T13:25:46;19.10;99.90
20714;DHT22;10518;50.742;4.226;2023-03-30T13:34:12;18.70;99.90
20714;DHT22;10518;50.742;4.226;2023-03-30T13:36:54;18.70;99.90
20714;DHT22;10518;50.742;4.226;2023-03-30T13:39:39;18.70;99.90
20714;DHT22;10518;50.742;4.226;2023-03-30T13:48:15;18.70;99.90
20714;DHT22;10518;50.742;4.226;2023-03-30T13:50:51;18.50;99.90
20714;DHT22;10518;50.742;4.226;2023-03-30T13:53:19;18.20;99.90
20714;DHT22;10518;50.742;4.226;2023-03-30T13:55:47;18.10;99.90
20714;DHT22;10518;50.742;4.226;2023-03-30T13:58:22;18.20;99.90
20714;DHT22;10518;50.742;4.226;2023-03-30T14:00:55;18.30;99.90
20714;DHT22;10518;50.742;4.226;2023-03-30T14:03:35;18.40;99.90
20714;DHT22;10518;50.742;4.226;2023-03-30T14:06:06;18.50;99.90
20714;DHT22;10518;50.742;4.226;2023-03-30T14:08:35;18.50;99.90
20714;DHT22;10518;50.742;4.226;2023-03-30T14:11:15;18.50;99.90
20714;DHT22;10518;50.742;4.226;2023-03-30T14:13:42;18.50;99.90
20714;DHT22;10518;50.742;4.226;2023-03-30T14:16:09;18.60;99.90
20714;DHT22;10518;50.742;4.226;2023-03-30T14:18:36;18.60;99.90
20714;DHT22;10518;50.742;4.226;2023-03-30T14:21:13;18.20;99.90
20714;DHT22;10518;50.742;4.226;2023-03-30T14:23:43;17.70;99.90
20714;DHT22;10518;50.742;4.226;2023-03-30T14:26:18;17.50;99.90
20714;DHT22;10518;50.742;4.226;2023-03-30T14:28:46;17.60;99.90
20714;DHT22;10518;50.742;4.226;2023-03-30T14:31:17;17.60;99.90
20714;DHT22;10518;50.742;4.226;2023-03-30T14:33:43;17.50;99.90
20714;DHT22;10518;50.742;4.226;2023-03-30T14:36:14;17.30;99.90
20714;DHT22;10518;50.742;4.226;2023-03-30T14:38:43;17.60;99.90
20714;DHT22;10518;50.742;4.226;2023-03-30T14:41:18;17.90;99.90
20714;DHT22;10518;50.742;4.226;2023-03-30T14:44:05;17.80;99.90
20714;DHT22;10518;50.742;4.226;2023-03-30T14:46:42;18.00;99.90
20714;DHT22;10518;50.742;4.226;2023-03-30T14:49:17;18.00;99.90
20714;DHT22;10518;50.742;4.226;2023-03-30T14:51:50;17.90;99.90
20714;DHT22;10518;50.742;4.226;2023-03-30T14:54:19;17.70;99.90
20714;DHT22;10518;50.742;4.226;2023-03-30T14:56:51;17.80;99.90
20714;DHT22;10518;50.742;4.226;2023-03-30T14:59:17;17.70;99.90
20714;DHT22;10518;50.742;4.226;2023-03-30T15:01:44;18.10;99.90
20714;DHT22;10518;50.742;4.226;2023-03-30T15:04:13;18.20;99.90
20714;DHT22;10518;50.742;4.226;2023-03-30T15:06:40;18.50;99.90
20714;DHT22;10518;50.742;4.226;2023-03-30T15:09:14;18.50;99.90
20714;DHT22;10518;50.742;4.226;2023-03-30T15:11:41;18.40;99.90
20714;DHT22;10518;50.742;4.226;2023-03-30T15:14:12;18.10;99.90
20714;DHT22;10518;50.742;4.226;2023-03-30T15:16:38;17.90;99.90
20714;DHT22;10518;50.742;4.226;2023-03-30T15:19:11;17.90;99.90
20714;DHT22;10518;50.742;4.226;2023-03-30T15:21:37;18.00;99.90
20714;DHT22;10518;50.742;4.226;2023-03-30T15:24:05;18.10;99.90
20714;DHT22;10518;50.742;4.226;2023-03-30T15:26:32;18.30;99.90
20714;DHT22;10518;50.742;4.226;2023-03-30T15:28:59;18.30;99.90
20714;DHT22;10518;50.742;4.226;2023-03-30T15:31:26;18.40;99.90
20714;DHT22;10518;50.742;4.226;2023-03-30T15:33:54;18.30;99.90
20714;DHT22;10518;50.742;4.226;2023-03-30T15:36:36;18.20;99.90
20714;DHT22;10518;50.742;4.226;2023-03-30T15:39:17;18.30;99.90
20714;DHT22;10518;50.742;4.226;2023-03-30T15:41:57;18.30;99.90
20714;DHT22;10518;50.742;4.226;2023-03-30T15:44:26;18.00;99.90
20714;DHT22;10518;50.742;4.226;2023-03-30T15:46:54;17.50;99.90
20714;DHT22;10518;50.742;4.226;2023-03-30T15:49:22;17.00;99.90
20714;DHT22;10518;50.742;4.226;2023-03-30T15:51:59;16.80;99.90
20714;DHT22;10518;50.742;4.226;2023-03-30T15:54:32;16.90;99.90
20714;DHT22;10518;50.742;4.226;2023-03-30T15:57:04;17.00;99.90
20714;DHT22;10518;50.742;4.226;2023-03-30T15:59:57;17.00;99.90
20714;DHT22;10518;50.742;4.226;2023-03-30T16:02:34;17.20;99.90
20714;DHT22;10518;50.742;4.226;2023-03-30T16:05:02;17.00;99.90
20714;DHT22;10518;50.742;4.226;2023-03-30T16:07:30;16.90;99.90
20714;DHT22;10518;50.742;4.226;2023-03-30T16:09:55;16.90;99.90
20714;DHT22;10518;50.742;4.226;2023-03-30T16:12:24;16.80;99.90
20714;DHT22;10518;50.742;4.226;2023-03-30T16:14:51;16.70;99.90
20714;DHT22;10518;50.742;4.226;2023-03-30T16:17:17;16.50;99.90
20714;DHT22;10518;50.742;4.226;2023-03-30T16:19:44;16.50;99.90
20714;DHT22;10518;50.742;4.226;2023-03-30T16:22:11;16.40;99.90
20714;DHT22;10518;50.742;4.226;2023-03-30T16:24:37;16.30;99.90
20714;DHT22;10518;50.742;4.226;2023-03-30T16:27:05;16.10;99.90
20714;DHT22;10518;50.742;4.226;2023-03-30T16:29:32;15.90;99.90
20714;DHT22;10518;50.742;4.226;2023-03-30T16:31:58;15.90;99.90
20714;DHT22;10518;50.742;4.226;2023-03-30T16:34:24;16.30;99.90
20714;DHT22;10518;50.742;4.226;2023-03-30T16:36:51;16.30;99.90
20714;DHT22;10518;50.742;4.226;2023-03-30T16:39:22;16.30;99.90
20714;DHT22;10518;50.742;4.226;2023-03-30T16:41:49;16.20;99.90
20714;DHT22;10518;50.742;4.226;2023-03-30T16:44:16;16.20;99.90
20714;DHT22;10518;50.742;4.226;2023-03-30T16:46:42;15.90;99.90
20714;DHT22;10518;50.742;4.226;2023-03-30T16:49:22;15.80;99.90
20714;DHT22;10518;50.742;4.226;2023-03-30T16:51:49;15.60;99.90
20714;DHT22;10518;50.742;4.226;2023-03-30T16:54:16;15.70;99.90
20714;DHT22;10518;50.742;4.226;2023-03-30T16:56:42;15.70;99.90
20714;DHT22;10518;50.742;4.226;2023-03-30T16:59:27;15.90;99.90
20714;DHT22;10518;50.742;4.226;2023-03-30T17:01:54;15.70;99.90
20714;DHT22;10518;50.742;4.226;2023-03-30T17:04:20;15.80;99.90
20714;DHT22;10518;50.742;4.226;2023-03-30T17:06:46;16.20;99.90
20714;DHT22;10518;50.742;4.226;2023-03-30T17:09:14;16.30;99.90
20714;DHT22;10518;50.742;4.226;2023-03-30T17:11:44;16.00;99.90
20714;DHT22;10518;50.742;4.226;2023-03-30T17:14:10;16.00;99.90
20714;DHT22;10518;50.742;4.226;2023-03-30T17:16:36;15.90;99.90
20714;DHT22;10518;50.742;4.226;2023-03-30T17:19:02;15.90;99.90
20714;DHT22;10518;50.742;4.226;2023-03-30T17:21:28;15.90;99.90
20714;DHT22;10518;50.742;4.226;2023-03-30T17:23:53;15.70;99.90
20714;DHT22;10518;50.742;4.226;2023-03-30T17:26:20;15.90;99.90
20714;DHT22;10518;50.742;4.226;2023-03-30T17:28:46;16.20;99.90
20714;DHT22;10518;50.742;4.226;2023-03-30T17:31:19;16.00;99.90
20714;DHT22;10518;50.742;4.226;2023-03-30T17:33:46;16.00;99.90
20714;DHT22;10518;50.742;4.226;2023-03-30T17:36:20;16.00;99.90
20714;DHT22;10518;50.742;4.226;2023-03-30T17:38:47;15.60;99.90
20714;DHT22;10518;50.742;4.226;2023-03-30T17:41:13;15.40;99.90
20714;DHT22;10518;50.742;4.226;2023-03-30T17:43:40;15.20;99.90
20714;DHT22;10518;50.742;4.226;2023-03-30T17:46:10;15.40;99.90
20714;DHT22;10518;50.742;4.226;2023-03-30T17:48:37;15.70;99.90
20714;DHT22;10518;50.742;4.226;2023-03-30T17:51:02;15.50;99.90